sensor_id;sensor_type;location;lat;lon;timestamp;pressure;altitude;pressure_sealevel;temperature;humidity
72721;BME280;60835;50.974;10.322;2023-04-26T00:00:43;98894.53;;;5.49;100.00
72721;BME280;60835;50.974;10.322;2023-04-26T00:03:10;98869.00;;;5.28;100.00
72721;BME280;60835;50.974;10.322;2023-04-26T00:05:39;98843.75;;;5.38;100.00
72721;BME280;60835;50.974;10.322;2023-04-26T00:08:05;98840.88;;;5.30;100.00
72721;BME280;60835;50.974;10.322;2023-04-26T00:10:32;98836.69;;;5.27;100.00
72721;BME280;60835;50.974;10.322;2023-04-26T00:12:58;98814.59;;;5.19;100.00
72721;BME280;60835;50.974;10.322;2023-04-26T00:15:25;98792.78;;;5.18;100.00
72721;BME280;60835;50.974;10.322;2023-04-26T00:17:52;98776.63;;;5.12;100.00
72721;BME280;60835;50.974;10.322;2023-04-26T00:20:19;98761.03;;;5.10;100.00
72721;BME280;60835;50.974;10.322;2023-04-26T00:22:45;98742.25;;;5.04;100.00
72721;BME280;60835;50.974;10.322;2023-04-26T00:25:11;98732.75;;;5.03;100.00
72721;BME280;60835;50.974;10.322;2023-04-26T00:27:39;98720.28;;;4.93;100.00
72721;BME280;60835;50.974;10.322;2023-04-26T00:30:09;98704.41;;;4.84;100.00
72721;BME280;60835;50.974;10.322;2023-04-26T00:32:36;98692.81;;;4.75;100.00
72721;BME280;60835;50.974;10.322;2023-04-26T00:35:03;98679.22;;;4.70;100.00
72721;BME280;60835;50.974;10.322;2023-04-26T00:37:30;98674.91;;;4.69;100.00
72721;BME280;60835;50.974;10.322;2023-04-26T00:39:56;98665.59;;;4.65;100.00
72721;BME280;60835;50.974;10.322;2023-04-26T00:42:23;98646.28;;;4.66;100.00
72721;BME280;60835;50.974;10.322;2023-04-26T00:44:52;98643.31;;;4.60;100.00
72721;BME280;60835;50.974;10.322;2023-04-26T00:47:23;98643.41;;;4.58;100.00
72721;BME280;60835;50.974;10.322;2023-04-26T00:49:50;98619.38;;;4.64;100.00
72721;BME280;60835;50.974;10.322;2023-04-26T00:52:17;98619.28;;;4.66;100.00
72721;BME280;60835;50.974;10.322;2023-04-26T00:54:44;98616.47;;;4.56;100.00
72721;BME280;60835;50.974;10.322;2023-04-26T00:57:13;98614.63;;;4.46;100.00
72721;BME280;60835;50.974;10.322;2023-04-26T00:59:39;98577.88;;;4.47;100.00
72721;BME280;60835;50.974;10.322;2023-04-26T01:02:07;98586.09;;;4.30;100.00
72721;BME280;60835;50.974;10.322;2023-04-26T01:04:34;98570.28;;;4.31;100.00
72721;BME280;60835;50.974;10.322;2023-04-26T01:07:02;98556.81;;;4.25;100.00
72721;BME280;60835;50.974;10.322;2023-04-26T01:09:29;98547.75;;;4.29;100.00
72721;BME280;60835;50.974;10.322;2023-04-26T01:11:57;98539.41;;;4.24;100.00
72721;BME280;60835;50.974;10.322;2023-04-26T01:14:23;98545.13;;;4.18;100.00
72721;BME280;60835;50.974;10.322;2023-04-26T01:16:50;98526.22;;;4.25;100.00
72721;BME280;60835;50.974;10.322;2023-04-26T01:19:17;98528.94;;;4.24;100.00
72721;BME280;60835;50.974;10.322;2023-04-26T01:21:44;98529.84;;;4.12;100.00
72721;BME280;60835;50.974;10.322;2023-04-26T01:24:12;98532.47;;;4.12;100.00
72721;BME280;60835;50.974;10.322;2023-04-26T01:26:39;98535.97;;;4.23;100.00
72721;BME280;60835;50.974;10.322;2023-04-26T01:29:15;98527.94;;;4.14;100.00
72721;BME280;60835;50.974;10.322;2023-04-26T01:31:42;98511.09;;;4.29;100.00
72721;BME280;60835;50.974;10.322;2023-04-26T01:34:09;98520.38;;;4.22;100.00
72721;BME280;60835;50.974;10.322;2023-04-26T01:36:35;98528.72;;;4.27;100.00
72721;BME280;60835;50.974;10.322;2023-04-26T01:39:02;98545.88;;;4.31;100.00
72721;BME280;60835;50.974;10.322;2023-04-26T01:41:29;98513.56;;;4.19;100.00
72721;BME280;60835;50.974;10.322;2023-04-26T01:43:55;98516.19;;;4.19;100.00
72721;BME280;60835;50.974;10.322;2023-04-26T01:46:22;98501.31;;;4.20;100.00
72721;BME280;60835;50.974;10.322;2023-04-26T01:48:48;98483.44;;;4.14;100.00
72721;BME280;60835;50.974;10.322;2023-04-26T01:51:15;98469.06;;;4.19;100.00
72721;BME280;60835;50.974;10.322;2023-04-26T01:53:42;98498.94;;;4.17;100.00
72721;BME280;60835;50.974;10.322;2023-04-26T01:56:09;98500.81;;;4.15;100.00
72721;BME280;60835;50.974;10.322;2023-04-26T01:58:35;98460.03;;;3.89;100.00
72721;BME280;60835;50.974;10.322;2023-04-26T02:01:06;98462.94;;;4.08;100.00
72721;BME280;60835;50.974;10.322;2023-04-26T02:03:33;98445.47;;;3.61;100.00
72721;BME280;60835;50.974;10.322;2023-04-26T02:06:00;98392.03;;;3.76;100.00
72721;BME280;60835;50.974;10.322;2023-04-26T02:08:26;98385.31;;;3.61;100.00
72721;BME280;60835;50.974;10.322;2023-04-26T02:10:53;98367.56;;;3.53;100.00
72721;BME280;60835;50.974;10.322;2023-04-26T02:13:19;98344.41;;;3.36;100.00
72721;BME280;60835;50.974;10.322;2023-04-26T02:15:46;98309.84;;;3.09;100.00
72721;BME280;60835;50.974;10.322;2023-04-26T02:18:13;98255.78;;;3.10;100.00
72721;BME280;60835;50.974;10.322;2023-04-26T02:20:40;98208.78;;;2.97;100.00
72721;BME280;60835;50.974;10.322;2023-04-26T02:23:11;98147.22;;;2.82;100.00
72721;BME280;60835;50.974;10.322;2023-04-26T02:25:38;98085.66;;;2.67;100.00
72721;BME280;60835;50.974;10.322;2023-04-26T02:28:05;98007.28;;;2.56;100.00
72721;BME280;60835;50.974;10.322;2023-04-26T02:30:35;97957.88;;;2.41;100.00
72721;BME280;60835;50.974;10.322;2023-04-26T02:33:02;97867.34;;;2.42;100.00
72721;BME280;60835;50.974;10.322;2023-04-26T02:35:28;97823.44;;;2.25;100.00
72721;BME280;60835;50.974;10.322;2023-04-26T02:37:55;97737.31;;;2.14;100.00
72721;BME280;60835;50.974;10.322;2023-04-26T02:40:21;97653.22;;;2.10;100.00
72721;BME280;60835;50.974;10.322;2023-04-26T02:42:48;97583.50;;;2.12;100.00
72721;BME280;60835;50.974;10.322;2023-04-26T02:45:14;97544.41;;;2.01;100.00
72721;BME280;60835;50.974;10.322;2023-04-26T02:47:41;97498.63;;;2.08;100.00
72721;BME280;60835;50.974;10.322;2023-04-26T02:50:08;97479.22;;;2.01;100.00
72721;BME280;60835;50.974;10.322;2023-04-26T02:52:35;97451.84;;;1.96;100.00
72721;BME280;60835;50.974;10.322;2023-04-26T02:55:03;97414.25;;;1.98;100.00
72721;BME280;60835;50.974;10.322;2023-04-26T02:57:30;97399.16;;;2.02;100.00
72721;BME280;60835;50.974;10.322;2023-04-26T02:59:57;97369.81;;;1.89;100.00
72721;BME280;60835;50.974;10.322;2023-04-26T03:02:24;97357.59;;;1.89;100.00
72721;BME280;60835;50.974;10.322;2023-04-26T03:04:51;97349.84;;;1.78;100.00
72721;BME280;60835;50.974;10.322;2023-04-26T03:12:12;97306.09;;;1.81;100.00
72721;BME280;60835;50.974;10.322;2023-04-26T03:14:38;97308.00;;;2.00;100.00
72721;BME280;60835;50.974;10.322;2023-04-26T03:17:05;97305.13;;;2.03;100.00
72721;BME280;60835;50.974;10.322;2023-04-26T03:19:31;97313.59;;;1.75;100.00
72721;BME280;60835;50.974;10.322;2023-04-26T03:22:01;97316.31;;;1.73;100.00
72721;BME280;60835;50.974;10.322;2023-04-26T03:24:27;97299.59;;;1.76;100.00
72721;BME280;60835;50.974;10.322;2023-04-26T03:26:54;97303.03;;;1.56;100.00
72721;BME280;60835;50.974;10.322;2023-04-26T03:29:20;97293.41;;;1.56;100.00
72721;BME280;60835;50.974;10.322;2023-04-26T03:31:47;97288.34;;;1.55;100.00
72721;BME280;60835;50.974;10.322;2023-04-26T03:34:13;97296.41;;;1.52;100.00
72721;BME280;60835;50.974;10.322;2023-04-26T03:36:41;97306.53;;;1.45;100.00
72721;BME280;60835;50.974;10.322;2023-04-26T03:39:07;97304.63;;;1.47;100.00
72721;BME280;60835;50.974;10.322;2023-04-26T03:41:34;97430.53;;;1.48;100.00
72721;BME280;60835;50.974;10.322;2023-04-26T03:44:04;97438.47;;;1.46;100.00
72721;BME280;60835;50.974;10.322;2023-04-26T03:46:31;97447.56;;;1.52;100.00
72721;BME280;60835;50.974;10.322;2023-04-26T03:49:00;97458.69;;;1.54;100.00
72721;BME280;60835;50.974;10.322;2023-04-26T03:51:27;97460.38;;;1.55;100.00
72721;BME280;60835;50.974;10.322;2023-04-26T03:53:54;97468.16;;;1.77;100.00
72721;BME280;60835;50.974;10.322;2023-04-26T03:56:20;97459.66;;;1.96;100.00
72721;BME280;60835;50.974;10.322;2023-04-26T03:58:47;97459.38;;;1.67;100.00
72721;BME280;60835;50.974;10.322;2023-04-26T04:01:13;97456.78;;;1.67;100.00
72721;BME280;60835;50.974;10.322;2023-04-26T04:03:40;97453.72;;;1.62;100.00
72721;BME280;60835;50.974;10.322;2023-04-26T04:06:07;97461.59;;;1.51;100.00
72721;BME280;60835;50.974;10.322;2023-04-26T04:08:34;97462.06;;;1.45;100.00
72721;BME280;60835;50.974;10.322;2023-04-26T04:11:00;97427.16;;;1.14;100.00
72721;BME280;60835;50.974;10.322;2023-04-26T04:13:29;97467.03;;;1.48;100.00
72721;BME280;60835;50.974;10.322;2023-04-26T04:15:56;97476.16;;;1.31;100.00
72721;BME280;60835;50.974;10.322;2023-04-26T04:18:26;97488.38;;;1.31;100.00
72721;BME280;60835;50.974;10.322;2023-04-26T04:20:53;97494.53;;;1.30;100.00
72721;BME280;60835;50.974;10.322;2023-04-26T04:23:19;97511.47;;;1.24;100.00
72721;BME280;60835;50.974;10.322;2023-04-26T04:25:45;97511.25;;;1.27;100.00
72721;BME280;60835;50.974;10.322;2023-04-26T04:28:14;97518.00;;;1.30;100.00
72721;BME280;60835;50.974;10.322;2023-04-26T04:30:40;97528.16;;;1.33;100.00
72721;BME280;60835;50.974;10.322;2023-04-26T04:33:08;97527.44;;;1.31;100.00
72721;BME280;60835;50.974;10.322;2023-04-26T04:35:35;97497.63;;;1.12;100.00
72721;BME280;60835;50.974;10.322;2023-04-26T04:38:02;97546.06;;;1.26;100.00
72721;BME280;60835;50.974;10.322;2023-04-26T04:40:28;97548.75;;;1.36;100.00
72721;BME280;60835;50.974;10.322;2023-04-26T04:42:59;97560.16;;;1.35;100.00
72721;BME280;60835;50.974;10.322;2023-04-26T04:45:28;97564.63;;;1.44;100.00
72721;BME280;60835;50.974;10.322;2023-04-26T04:47:55;97563.00;;;1.43;100.00
72721;BME280;60835;50.974;10.322;2023-04-26T04:50:22;97564.16;;;1.50;100.00
72721;BME280;60835;50.974;10.322;2023-04-26T04:52:48;97569.16;;;1.53;100.00
72721;BME280;60835;50.974;10.322;2023-04-26T04:55:15;97574.34;;;1.53;100.00
72721;BME280;60835;50.974;10.322;2023-04-26T04:57:41;97570.31;;;1.60;100.00
72721;BME280;60835;50.974;10.322;2023-04-26T05:00:08;97564.63;;;1.66;100.00
72721;BME280;60835;50.974;10.322;2023-04-26T05:02:36;97567.09;;;1.67;100.00
72721;BME280;60835;50.974;10.322;2023-04-26T05:05:03;97564.97;;;1.72;100.00
72721;BME280;60835;50.974;10.322;2023-04-26T05:07:37;97569.59;;;1.69;100.00
72721;BME280;60835;50.974;10.322;2023-04-26T05:10:04;97568.16;;;1.87;100.00
72721;BME280;60835;50.974;10.322;2023-04-26T05:12:30;97560.78;;;2.03;100.00
72721;BME280;60835;50.974;10.322;2023-04-26T05:14:57;97550.31;;;2.14;100.00
72721;BME280;60835;50.974;10.322;2023-04-26T05:17:23;97544.00;;;2.17;100.00
72721;BME280;60835;50.974;10.322;2023-04-26T05:19:50;97538.84;;;2.26;100.00
72721;BME280;60835;50.974;10.322;2023-04-26T05:22:16;97541.34;;;2.28;100.00
72721;BME280;60835;50.974;10.322;2023-04-26T05:24:46;97538.94;;;2.36;100.00
72721;BME280;60835;50.974;10.322;2023-04-26T05:27:13;97534.13;;;2.52;100.00
72721;BME280;60835;50.974;10.322;2023-04-26T05:29:40;97518.28;;;2.65;100.00
72721;BME280;60835;50.974;10.322;2023-04-26T05:32:07;97498.47;;;3.13;100.00
72721;BME280;60835;50.974;10.322;2023-04-26T05:34:34;97488.09;;;3.02;100.00
72721;BME280;60835;50.974;10.322;2023-04-26T05:37:03;97477.00;;;3.10;100.00
72721;BME280;60835;50.974;10.322;2023-04-26T05:39:30;97441.19;;;3.31;100.00
72721;BME280;60835;50.974;10.322;2023-04-26T05:41:57;97381.06;;;3.50;100.00
72721;BME280;60835;50.974;10.322;2023-04-26T05:44:23;97376.25;;;3.55;100.00
72721;BME280;60835;50.974;10.322;2023-04-26T05:46:50;97367.03;;;3.80;100.00
72721;BME280;60835;50.974;10.322;2023-04-26T05:49:16;97377.50;;;3.99;100.00
72721;BME280;60835;50.974;10.322;2023-04-26T05:51:43;97416.03;;;4.35;100.00
72721;BME280;60835;50.974;10.322;2023-04-26T05:54:09;97512.63;;;4.38;100.00
72721;BME280;60835;50.974;10.322;2023-04-26T05:56:36;97643.44;;;4.49;100.00
72721;BME280;60835;50.974;10.322;2023-04-26T05:59:02;97759.94;;;5.52;100.00
72721;BME280;60835;50.974;10.322;2023-04-26T06:01:29;98104.38;;;6.72;100.00
72721;BME280;60835;50.974;10.322;2023-04-26T06:03:56;98356.41;;;6.56;100.00
72721;BME280;60835;50.974;10.322;2023-04-26T06:06:26;98630.00;;;7.47;100.00
72721;BME280;60835;50.974;10.322;2023-04-26T06:08:53;98798.59;;;8.39;100.00
72721;BME280;60835;50.974;10.322;2023-04-26T06:11:20;98913.97;;;8.15;100.00
72721;BME280;60835;50.974;10.322;2023-04-26T06:13:47;98967.66;;;8.87;100.00
72721;BME280;60835;50.974;10.322;2023-04-26T06:16:14;99010.38;;;8.81;100.00
72721;BME280;60835;50.974;10.322;2023-04-26T06:18:44;98982.44;;;8.78;100.00
72721;BME280;60835;50.974;10.322;2023-04-26T06:21:11;99046.88;;;9.57;100.00
72721;BME280;60835;50.974;10.322;2023-04-26T06:23:37;99072.72;;;9.23;100.00
72721;BME280;60835;50.974;10.322;2023-04-26T06:26:04;99083.97;;;9.25;100.00
72721;BME280;60835;50.974;10.322;2023-04-26T06:28:30;99086.09;;;9.31;100.00
72721;BME280;60835;50.974;10.322;2023-04-26T06:30:57;99099.53;;;9.49;100.00
72721;BME280;60835;50.974;10.322;2023-04-26T06:33:23;99119.69;;;9.80;100.00
72721;BME280;60835;50.974;10.322;2023-04-26T06:35:50;99128.63;;;9.28;100.00
72721;BME280;60835;50.974;10.322;2023-04-26T06:38:17;99128.56;;;9.69;100.00
72721;BME280;60835;50.974;10.322;2023-04-26T06:40:44;99140.19;;;10.18;100.00
72721;BME280;60835;50.974;10.322;2023-04-26T06:43:20;99140.19;;;10.18;100.00
72721;BME280;60835;50.974;10.322;2023-04-26T06:45:47;99143.66;;;10.87;100.00
72721;BME280;60835;50.974;10.322;2023-04-26T06:48:13;99159.09;;;10.72;100.00
72721;BME280;60835;50.974;10.322;2023-04-26T06:50:40;99168.88;;;11.00;100.00
72721;BME280;60835;50.974;10.322;2023-04-26T06:53:06;99171.38;;;9.22;100.00
72721;BME280;60835;50.974;10.322;2023-04-26T06:55:33;99170.41;;;9.02;100.00
72721;BME280;60835;50.974;10.322;2023-04-26T06:58:00;99163.97;;;9.88;100.00
72721;BME280;60835;50.974;10.322;2023-04-26T07:00:26;99175.69;;;10.15;100.00
72721;BME280;60835;50.974;10.322;2023-04-26T07:02:53;99178.16;;;9.87;100.00
72721;BME280;60835;50.974;10.322;2023-04-26T07:05:20;99191.84;;;9.30;100.00
72721;BME280;60835;50.974;10.322;2023-04-26T07:07:47;99188.38;;;9.70;100.00
72721;BME280;60835;50.974;10.322;2023-04-26T07:10:15;99180.44;;;10.01;100.00
72721;BME280;60835;50.974;10.322;2023-04-26T07:12:41;99179.97;;;11.52;100.00
72721;BME280;60835;50.974;10.322;2023-04-26T07:15:08;99200.31;;;10.65;100.00
72721;BME280;60835;50.974;10.322;2023-04-26T07:17:35;99209.03;;;11.25;100.00
72721;BME280;60835;50.974;10.322;2023-04-26T07:20:01;99212.47;;;10.77;100.00
72721;BME280;60835;50.974;10.322;2023-04-26T07:22:28;99193.31;;;11.98;100.00
72721;BME280;60835;50.974;10.322;2023-04-26T07:24:55;99212.91;;;12.25;100.00
72721;BME280;60835;50.974;10.322;2023-04-26T07:27:21;99206.28;;;12.01;100.00
72721;BME280;60835;50.974;10.322;2023-04-26T07:29:48;99201.66;;;13.12;100.00
72721;BME280;60835;50.974;10.322;2023-04-26T07:32:18;99208.03;;;11.45;100.00
72721;BME280;60835;50.974;10.322;2023-04-26T07:34:44;99217.72;;;13.46;100.00
72721;BME280;60835;50.974;10.322;2023-04-26T07:37:11;99190.91;;;11.49;100.00
72721;BME280;60835;50.974;10.322;2023-04-26T07:39:37;99213.06;;;10.11;100.00
72721;BME280;60835;50.974;10.322;2023-04-26T07:42:04;99221.59;;;10.54;100.00
72721;BME280;60835;50.974;10.322;2023-04-26T07:44:30;99210.63;;;12.30;100.00
72721;BME280;60835;50.974;10.322;2023-04-26T07:46:57;99212.28;;;13.03;100.00
72721;BME280;60835;50.974;10.322;2023-04-26T07:49:24;99224.13;;;12.91;100.00
72721;BME280;60835;50.974;10.322;2023-04-26T07:51:51;99216.88;;;13.63;100.00
72721;BME280;60835;50.974;10.322;2023-04-26T07:54:17;99199.72;;;14.09;100.00
72721;BME280;60835;50.974;10.322;2023-04-26T07:56:44;99206.75;;;14.44;100.00
72721;BME280;60835;50.974;10.322;2023-04-26T07:59:10;99225.88;;;11.62;100.00
72721;BME280;60835;50.974;10.322;2023-04-26T08:01:40;99230.03;;;11.84;100.00
72721;BME280;60835;50.974;10.322;2023-04-26T08:04:10;99233.53;;;12.85;100.00
72721;BME280;60835;50.974;10.322;2023-04-26T08:06:37;99230.50;;;13.86;100.00
72721;BME280;60835;50.974;10.322;2023-04-26T08:09:04;99221.84;;;14.35;100.00
72721;BME280;60835;50.974;10.322;2023-04-26T08:11:31;99196.09;;;12.61;100.00
72721;BME280;60835;50.974;10.322;2023-04-26T08:13:58;99231.41;;;11.97;100.00
72721;BME280;60835;50.974;10.322;2023-04-26T08:16:24;99233.41;;;10.99;100.00
72721;BME280;60835;50.974;10.322;2023-04-26T08:18:51;99222.44;;;12.45;100.00
72721;BME280;60835;50.974;10.322;2023-04-26T08:21:17;99225.41;;;13.31;100.00
72721;BME280;60835;50.974;10.322;2023-04-26T08:23:47;99211.69;;;14.73;100.00
72721;BME280;60835;50.974;10.322;2023-04-26T08:26:16;99202.81;;;15.78;100.00
72721;BME280;60835;50.974;10.322;2023-04-26T08:28:42;99195.69;;;16.34;100.00
72721;BME280;60835;50.974;10.322;2023-04-26T08:31:09;99200.94;;;15.06;100.00
72721;BME280;60835;50.974;10.322;2023-04-26T08:33:35;99201.47;;;14.26;100.00
72721;BME280;60835;50.974;10.322;2023-04-26T08:36:02;99216.31;;;13.34;100.00
72721;BME280;60835;50.974;10.322;2023-04-26T08:38:28;99217.81;;;12.19;100.00
72721;BME280;60835;50.974;10.322;2023-04-26T08:40:55;99216.97;;;11.25;100.00
72721;BME280;60835;50.974;10.322;2023-04-26T08:43:23;99221.72;;;11.12;100.00
72721;BME280;60835;50.974;10.322;2023-04-26T08:45:52;99227.56;;;11.25;100.00
72721;BME280;60835;50.974;10.322;2023-04-26T08:48:20;99225.88;;;10.95;100.00
72721;BME280;60835;50.974;10.322;2023-04-26T08:50:47;99210.56;;;12.49;100.00
72721;BME280;60835;50.974;10.322;2023-04-26T08:53:16;99217.19;;;11.98;100.00
72721;BME280;60835;50.974;10.322;2023-04-26T08:55:48;99206.84;;;13.04;100.00
72721;BME280;60835;50.974;10.322;2023-04-26T08:58:18;99199.59;;;14.44;100.00
72721;BME280;60835;50.974;10.322;2023-04-26T09:00:46;99203.31;;;14.59;100.00
72721;BME280;60835;50.974;10.322;2023-04-26T09:03:13;99198.44;;;15.05;100.00
72721;BME280;60835;50.974;10.322;2023-04-26T09:05:40;99159.56;;;13.69;100.00
72721;BME280;60835;50.974;10.322;2023-04-26T09:08:12;99185.84;;;15.55;98.93
72721;BME280;60835;50.974;10.322;2023-04-26T09:10:42;99184.78;;;16.52;94.50
72721;BME280;60835;50.974;10.322;2023-04-26T09:13:09;99184.31;;;16.79;93.76
72721;BME280;60835;50.974;10.322;2023-04-26T09:15:37;99193.50;;;14.60;96.63
72721;BME280;60835;50.974;10.322;2023-04-26T09:18:20;99202.81;;;14.30;95.08
72721;BME280;60835;50.974;10.322;2023-04-26T09:21:05;99210.69;;;13.19;98.50
72721;BME280;60835;50.974;10.322;2023-04-26T09:23:33;99217.63;;;13.56;100.00
72721;BME280;60835;50.974;10.322;2023-04-26T09:26:16;99220.06;;;12.42;100.00
72721;BME280;60835;50.974;10.322;2023-04-26T09:28:49;99225.47;;;12.23;100.00
72721;BME280;60835;50.974;10.322;2023-04-26T09:31:36;99217.31;;;12.61;100.00
72721;BME280;60835;50.974;10.322;2023-04-26T09:34:04;99214.16;;;13.02;100.00
72721;BME280;60835;50.974;10.322;2023-04-26T09:36:31;99202.75;;;14.98;100.00
72721;BME280;60835;50.974;10.322;2023-04-26T09:38:57;99204.53;;;14.31;97.16
72721;BME280;60835;50.974;10.322;2023-04-26T09:41:49;99207.28;;;13.96;100.00
72721;BME280;60835;50.974;10.322;2023-04-26T09:44:21;99216.75;;;12.84;100.00
72721;BME280;60835;50.974;10.322;2023-04-26T09:46:58;99205.69;;;12.44;100.00
72721;BME280;60835;50.974;10.322;2023-04-26T09:49:26;99219.25;;;12.04;100.00
72721;BME280;60835;50.974;10.322;2023-04-26T09:51:59;99210.88;;;11.99;100.00
72721;BME280;60835;50.974;10.322;2023-04-26T09:54:43;99216.25;;;11.23;100.00
72721;BME280;60835;50.974;10.322;2023-04-26T09:57:10;99222.47;;;10.64;100.00
72721;BME280;60835;50.974;10.322;2023-04-26T09:59:46;99222.00;;;11.28;100.00
72721;BME280;60835;50.974;10.322;2023-04-26T10:04:44;99224.75;;;10.97;100.00
72721;BME280;60835;50.974;10.322;2023-04-26T10:07:12;99215.72;;;10.41;100.00
72721;BME280;60835;50.974;10.322;2023-04-26T10:09:39;99219.19;;;11.00;100.00
72721;BME280;60835;50.974;10.322;2023-04-26T10:12:10;99227.56;;;11.06;100.00
72721;BME280;60835;50.974;10.322;2023-04-26T10:14:37;99224.19;;;10.94;100.00
72721;BME280;60835;50.974;10.322;2023-04-26T10:17:04;99228.75;;;10.33;100.00
72721;BME280;60835;50.974;10.322;2023-04-26T10:19:33;99215.75;;;10.51;100.00
72721;BME280;60835;50.974;10.322;2023-04-26T10:22:04;99219.47;;;11.07;100.00
72721;BME280;60835;50.974;10.322;2023-04-26T10:24:31;99212.19;;;10.80;100.00
72721;BME280;60835;50.974;10.322;2023-04-26T10:26:59;99215.03;;;11.27;100.00
72721;BME280;60835;50.974;10.322;2023-04-26T10:32:13;99206.59;;;13.07;100.00
72721;BME280;60835;50.974;10.322;2023-04-26T10:34:43;99203.19;;;13.76;100.00
72721;BME280;60835;50.974;10.322;2023-04-26T10:37:13;99210.78;;;13.00;97.12
72721;BME280;60835;50.974;10.322;2023-04-26T10:39:40;99208.94;;;12.38;100.00
72721;BME280;60835;50.974;10.322;2023-04-26T10:42:17;99209.38;;;11.68;100.00
72721;BME280;60835;50.974;10.322;2023-04-26T10:44:53;99203.22;;;11.96;100.00
72721;BME280;60835;50.974;10.322;2023-04-26T10:50:00;99217.53;;;11.38;100.00
72721;BME280;60835;50.974;10.322;2023-04-26T10:52:30;99223.09;;;11.35;100.00
72721;BME280;60835;50.974;10.322;2023-04-26T10:55:00;99213.84;;;11.68;100.00
72721;BME280;60835;50.974;10.322;2023-04-26T11:00:16;99209.09;;;11.90;100.00
72721;BME280;60835;50.974;10.322;2023-04-26T11:02:43;99213.28;;;11.93;100.00
72721;BME280;60835;50.974;10.322;2023-04-26T11:08:06;99203.63;;;12.01;100.00
72721;BME280;60835;50.974;10.322;2023-04-26T11:10:38;99201.66;;;12.40;100.00
72721;BME280;60835;50.974;10.322;2023-04-26T11:13:04;99198.53;;;12.45;100.00
72721;BME280;60835;50.974;10.322;2023-04-26T11:15:31;99202.38;;;12.33;100.00
72721;BME280;60835;50.974;10.322;2023-04-26T11:18:01;99195.75;;;11.73;100.00
72721;BME280;60835;50.974;10.322;2023-04-26T11:20:32;99189.03;;;11.78;100.00
72721;BME280;60835;50.974;10.322;2023-04-26T11:23:09;99184.69;;;12.23;100.00
72721;BME280;60835;50.974;10.322;2023-04-26T11:25:37;99148.59;;;11.57;100.00
72721;BME280;60835;50.974;10.322;2023-04-26T11:28:04;99183.38;;;12.00;100.00
72721;BME280;60835;50.974;10.322;2023-04-26T11:30:31;99179.53;;;12.49;100.00
72721;BME280;60835;50.974;10.322;2023-04-26T11:32:58;99173.03;;;12.07;98.34
72721;BME280;60835;50.974;10.322;2023-04-26T11:35:25;99182.75;;;12.26;98.83
72721;BME280;60835;50.974;10.322;2023-04-26T11:37:53;99194.44;;;12.60;98.18
72721;BME280;60835;50.974;10.322;2023-04-26T11:40:19;99172.28;;;12.42;98.12
72721;BME280;60835;50.974;10.322;2023-04-26T11:42:46;99181.84;;;12.35;98.05
72721;BME280;60835;50.974;10.322;2023-04-26T11:45:16;99177.22;;;12.64;98.19
72721;BME280;60835;50.974;10.322;2023-04-26T11:47:46;99178.41;;;12.52;97.82
72721;BME280;60835;50.974;10.322;2023-04-26T11:50:13;99171.97;;;11.90;99.35
72721;BME280;60835;50.974;10.322;2023-04-26T11:52:41;99171.34;;;12.60;99.21
72721;BME280;60835;50.974;10.322;2023-04-26T11:55:08;99170.03;;;12.92;98.69
72721;BME280;60835;50.974;10.322;2023-04-26T11:57:35;99164.16;;;13.84;97.31
72721;BME280;60835;50.974;10.322;2023-04-26T12:00:12;99173.53;;;14.30;95.80
72721;BME280;60835;50.974;10.322;2023-04-26T12:02:43;99163.06;;;14.29;94.03
72721;BME280;60835;50.974;10.322;2023-04-26T12:07:54;99170.97;;;13.61;95.83
72721;BME280;60835;50.974;10.322;2023-04-26T12:10:25;99172.81;;;13.17;96.41
72721;BME280;60835;50.974;10.322;2023-04-26T12:12:52;99179.28;;;12.88;96.37
72721;BME280;60835;50.974;10.322;2023-04-26T12:15:22;99186.75;;;12.57;96.93
72721;BME280;60835;50.974;10.322;2023-04-26T12:17:52;99178.84;;;12.20;99.42
72721;BME280;60835;50.974;10.322;2023-04-26T12:20:30;99191.16;;;12.11;100.00
72721;BME280;60835;50.974;10.322;2023-04-26T12:22:57;99177.34;;;11.71;100.00
72721;BME280;60835;50.974;10.322;2023-04-26T12:25:24;99175.66;;;11.60;100.00
72721;BME280;60835;50.974;10.322;2023-04-26T12:27:51;99188.50;;;11.36;100.00
72721;BME280;60835;50.974;10.322;2023-04-26T12:30:17;99177.31;;;11.81;100.00
72721;BME280;60835;50.974;10.322;2023-04-26T12:32:44;99184.03;;;11.75;100.00
72721;BME280;60835;50.974;10.322;2023-04-26T12:35:10;99187.78;;;11.63;100.00
72721;BME280;60835;50.974;10.322;2023-04-26T12:37:37;99179.81;;;11.82;100.00
72721;BME280;60835;50.974;10.322;2023-04-26T12:40:04;99174.84;;;12.06;100.00
72721;BME280;60835;50.974;10.322;2023-04-26T12:42:32;99183.53;;;12.36;100.00
72721;BME280;60835;50.974;10.322;2023-04-26T12:45:04;99180.03;;;12.98;100.00
72721;BME280;60835;50.974;10.322;2023-04-26T12:47:31;99172.19;;;12.61;100.00
72721;BME280;60835;50.974;10.322;2023-04-26T12:49:58;99173.28;;;12.68;100.00
72721;BME280;60835;50.974;10.322;2023-04-26T12:52:26;99170.63;;;12.68;99.55
72721;BME280;60835;50.974;10.322;2023-04-26T12:54:53;99184.31;;;12.46;100.00
72721;BME280;60835;50.974;10.322;2023-04-26T12:57:19;99177.38;;;12.35;100.00
72721;BME280;60835;50.974;10.322;2023-04-26T12:59:49;99174.06;;;12.23;100.00
72721;BME280;60835;50.974;10.322;2023-04-26T13:02:16;99178.81;;;11.93;100.00
72721;BME280;60835;50.974;10.322;2023-04-26T13:04:42;99180.03;;;12.80;100.00
72721;BME280;60835;50.974;10.322;2023-04-26T13:07:09;99182.09;;;13.04;100.00
72721;BME280;60835;50.974;10.322;2023-04-26T13:09:36;99177.97;;;12.74;99.65